• Join FlightAware (Why Join?)
  • Login
  • US Flag 
08:51AM EST


 

Airport Tracker/Info


-or-


 

Live Flight TrackerFlight Track Log ✈ USC105 ✈ 26-Jun-2013 ✈ KLCK - KBKL

Flight Track Log - Related Links

Times and Time Zones

All times are in EDT time to prevent confusion due to time zone crossing. See the USC105 flight status page for this flight to view local times or setup timezone preferences in your user account.

Time Position Orientation Groundspeed Altitude Reporting Facility
EDT Latitude Longitude Course Direction KTS MPH feet Rate Location/Type
10:05PM 39.8217 -82.9222 47° Northeast 109 125 900  Level Indianapolis Center
10:06PM 39.8378 -82.8997 47° Northeast 119 137 1,400 720 Climbing Indianapolis Center
10:07PM 39.8703 -82.8850 19° North 141 162 2,100 720 Climbing Indianapolis Center
10:08PM 39.9089 -82.8881 357° North 140 161 2,900 660 Climbing Indianapolis Center
10:09PM 39.9500 -82.8867 North 142 163 3,500 660 Climbing Indianapolis Center
10:10PM 39.9892 -82.8597 28° Northeast 156 180 4,300 720 Climbing Indianapolis Center
10:11PM 40.0258 -82.8333 29° Northeast 152 175 5,000 300 Climbing Indianapolis Center
10:12PM 40.0731 -82.7956 31° Northeast 189 217 5,000  Level Indianapolis Center
10:13PM 40.1142 -82.7661 29° Northeast 187 215 5,000  Level Indianapolis Center
10:14PM 40.1603 -82.7297 31° Northeast 192 221 5,000  Level Indianapolis Center
10:15PM 40.2083 -82.6964 28° Northeast 194 223 5,000  Level Indianapolis Center
10:16PM 40.2517 -82.6631 30° Northeast 192 221 5,000  Level Indianapolis Center
10:17PM 40.3064 -82.6189 32° Northeast 197 227 5,000  Level Indianapolis Center
10:18PM 40.3547 -82.5831 29° Northeast 196 226 5,000  Level Indianapolis Center
10:19PM 40.4019 -82.5478 30° Northeast 195 224 5,000  Level Indianapolis Center
10:20PM 40.4483 -82.5111 31° Northeast 193 222 5,000  Level Indianapolis Center
10:21PM 40.4953 -82.4742 31° Northeast 195 224 5,000  Level Indianapolis Center
10:22PM 40.5428 -82.4397 29° Northeast 194 223 5,000  Level Indianapolis Center
10:23PM 40.5897 -82.4028 31° Northeast 194 223 5,000  Level Indianapolis Center
10:24PM 40.6381 -82.3686 28° Northeast 195 224 5,000  Level Indianapolis Center
10:25PM 40.6836 -82.3319 31° Northeast 192 221 5,000  Level Indianapolis Center
10:26PM 40.7306 -82.2967 30° Northeast 192 221 5,000  Level Indianapolis Center
10:27PM 40.7769 -82.2603 31° Northeast 192 221 5,000  Level Indianapolis Center
10:28PM 40.8231 -82.2239 31° Northeast 192 221 5,000  Level Indianapolis Center
10:29PM 40.8697 -82.1892 29° Northeast 191 220 5,000  Level Indianapolis Center
10:30PM 40.9153 -82.1517 32° Northeast 191 220 5,000  Level Indianapolis Center
10:31PM 40.9628 -82.1156 30° Northeast 194 223 5,000  Level Indianapolis Center
10:32PM 41.0183 -82.0747 29° Northeast 191 220 5,000  Level Cleveland Center